sensor_id;sensor_type;location;lat;lon;timestamp;P1;durP1;ratioP1;P2;durP2;ratioP2
59492;SDS011;45497;43.996;22.876;2022-12-07T00:01:33;24.55;;;15.95;;
59492;SDS011;45497;43.996;22.876;2022-12-07T00:04:02;26.02;;;17.10;;
59492;SDS011;45497;43.996;22.876;2022-12-07T00:06:32;23.45;;;15.32;;
59492;SDS011;45497;43.996;22.876;2022-12-07T00:09:03;25.05;;;16.30;;
59492;SDS011;45497;43.996;22.876;2022-12-07T00:11:29;21.95;;;15.63;;
59492;SDS011;45497;43.996;22.876;2022-12-07T00:13:56;26.23;;;16.00;;
59492;SDS011;45497;43.996;22.876;2022-12-07T00:16:24;22.30;;;15.82;;
59492;SDS011;45497;43.996;22.876;2022-12-07T00:18:51;23.63;;;15.25;;
59492;SDS011;45497;43.996;22.876;2022-12-07T00:21:21;23.33;;;15.38;;
59492;SDS011;45497;43.996;22.876;2022-12-07T00:23:49;23.52;;;15.43;;
59492;SDS011;45497;43.996;22.876;2022-12-07T00:28:52;22.52;;;16.10;;
59492;SDS011;45497;43.996;22.876;2022-12-07T00:31:20;31.23;;;21.35;;
59492;SDS011;45497;43.996;22.876;2022-12-07T00:33:48;31.67;;;23.80;;
59492;SDS011;45497;43.996;22.876;2022-12-07T00:36:16;25.35;;;18.65;;
59492;SDS011;45497;43.996;22.876;2022-12-07T00:38:43;27.77;;;19.63;;
59492;SDS011;45497;43.996;22.876;2022-12-07T00:41:12;22.95;;;15.50;;
59492;SDS011;45497;43.996;22.876;2022-12-07T00:43:42;23.75;;;16.60;;
59492;SDS011;45497;43.996;22.876;2022-12-07T00:46:09;25.58;;;16.80;;
59492;SDS011;45497;43.996;22.876;2022-12-07T00:48:37;25.65;;;16.20;;
59492;SDS011;45497;43.996;22.876;2022-12-07T00:51:03;24.17;;;15.43;;
59492;SDS011;45497;43.996;22.876;2022-12-07T00:53:29;21.02;;;15.38;;
59492;SDS011;45497;43.996;22.876;2022-12-07T00:55:55;24.27;;;16.17;;
59492;SDS011;45497;43.996;22.876;2022-12-07T00:58:21;22.73;;;14.73;;
59492;SDS011;45497;43.996;22.876;2022-12-07T01:00:47;25.15;;;16.55;;
59492;SDS011;45497;43.996;22.876;2022-12-07T01:03:13;25.75;;;16.33;;
59492;SDS011;45497;43.996;22.876;2022-12-07T01:05:39;24.10;;;15.75;;
59492;SDS011;45497;43.996;22.876;2022-12-07T01:08:13;26.83;;;16.38;;
59492;SDS011;45497;43.996;22.876;2022-12-07T01:10:39;26.73;;;15.93;;
59492;SDS011;45497;43.996;22.876;2022-12-07T01:13:04;25.23;;;16.40;;
59492;SDS011;45497;43.996;22.876;2022-12-07T01:15:29;26.80;;;17.23;;
59492;SDS011;45497;43.996;22.876;2022-12-07T01:17:55;28.10;;;16.87;;
59492;SDS011;45497;43.996;22.876;2022-12-07T01:20:21;28.27;;;17.20;;
59492;SDS011;45497;43.996;22.876;2022-12-07T01:22:46;26.80;;;16.63;;
59492;SDS011;45497;43.996;22.876;2022-12-07T01:25:12;28.07;;;17.50;;
59492;SDS011;45497;43.996;22.876;2022-12-07T01:27:37;27.15;;;17.20;;
59492;SDS011;45497;43.996;22.876;2022-12-07T01:30:03;27.60;;;17.23;;
59492;SDS011;45497;43.996;22.876;2022-12-07T01:32:31;26.95;;;16.63;;
59492;SDS011;45497;43.996;22.876;2022-12-07T01:34:56;26.03;;;16.07;;
59492;SDS011;45497;43.996;22.876;2022-12-07T01:37:21;28.73;;;16.55;;
59492;SDS011;45497;43.996;22.876;2022-12-07T01:39:50;25.27;;;16.73;;
59492;SDS011;45497;43.996;22.876;2022-12-07T01:42:17;26.45;;;15.98;;
59492;SDS011;45497;43.996;22.876;2022-12-07T01:47:56;30.38;;;18.00;;
59492;SDS011;45497;43.996;22.876;2022-12-07T01:50:24;28.77;;;17.60;;
59492;SDS011;45497;43.996;22.876;2022-12-07T01:52:53;31.90;;;17.65;;
59492;SDS011;45497;43.996;22.876;2022-12-07T01:55:22;32.83;;;19.23;;
59492;SDS011;45497;43.996;22.876;2022-12-07T01:57:48;37.13;;;20.88;;
59492;SDS011;45497;43.996;22.876;2022-12-07T02:00:16;37.85;;;20.73;;
59492;SDS011;45497;43.996;22.876;2022-12-07T02:02:47;36.38;;;20.20;;
59492;SDS011;45497;43.996;22.876;2022-12-07T02:05:20;55.00;;;23.80;;
59492;SDS011;45497;43.996;22.876;2022-12-07T02:07:47;35.47;;;19.17;;
59492;SDS011;45497;43.996;22.876;2022-12-07T02:10:15;34.63;;;17.93;;
59492;SDS011;45497;43.996;22.876;2022-12-07T02:12:46;33.50;;;19.60;;
59492;SDS011;45497;43.996;22.876;2022-12-07T02:15:15;31.92;;;18.98;;
59492;SDS011;45497;43.996;22.876;2022-12-07T02:17:54;30.42;;;18.40;;
59492;SDS011;45497;43.996;22.876;2022-12-07T02:28:33;29.90;;;17.25;;
59492;SDS011;45497;43.996;22.876;2022-12-07T02:31:06;24.70;;;15.57;;
59492;SDS011;45497;43.996;22.876;2022-12-07T02:33:42;27.73;;;17.57;;
59492;SDS011;45497;43.996;22.876;2022-12-07T02:38:45;27.48;;;16.67;;
59492;SDS011;45497;43.996;22.876;2022-12-07T02:41:42;29.23;;;17.77;;
59492;SDS011;45497;43.996;22.876;2022-12-07T02:44:16;30.30;;;17.17;;
59492;SDS011;45497;43.996;22.876;2022-12-07T02:46:44;27.33;;;17.10;;
59492;SDS011;45497;43.996;22.876;2022-12-07T02:49:16;31.48;;;17.30;;
59492;SDS011;45497;43.996;22.876;2022-12-07T02:51:43;31.17;;;17.13;;
59492;SDS011;45497;43.996;22.876;2022-12-07T02:54:11;27.63;;;16.80;;
59492;SDS011;45497;43.996;22.876;2022-12-07T03:02:00;28.42;;;17.30;;
59492;SDS011;45497;43.996;22.876;2022-12-07T03:10:17;27.40;;;16.40;;
59492;SDS011;45497;43.996;22.876;2022-12-07T03:13:04;29.35;;;18.02;;
59492;SDS011;45497;43.996;22.876;2022-12-07T03:18:11;28.40;;;20.15;;
59492;SDS011;45497;43.996;22.876;2022-12-07T03:20:40;31.08;;;23.30;;
59492;SDS011;45497;43.996;22.876;2022-12-07T03:23:08;27.48;;;16.40;;
59492;SDS011;45497;43.996;22.876;2022-12-07T03:25:39;26.70;;;16.42;;
59492;SDS011;45497;43.996;22.876;2022-12-07T03:28:09;28.17;;;16.73;;
59492;SDS011;45497;43.996;22.876;2022-12-07T03:30:39;27.95;;;16.45;;
59492;SDS011;45497;43.996;22.876;2022-12-07T03:33:11;27.57;;;16.70;;
59492;SDS011;45497;43.996;22.876;2022-12-07T03:35:43;57.40;;;51.50;;
59492;SDS011;45497;43.996;22.876;2022-12-07T03:38:21;28.77;;;16.95;;
59492;SDS011;45497;43.996;22.876;2022-12-07T03:40:55;26.73;;;16.40;;
59492;SDS011;45497;43.996;22.876;2022-12-07T03:43:46;29.77;;;16.77;;
59492;SDS011;45497;43.996;22.876;2022-12-07T03:49:24;43.73;;;35.37;;
59492;SDS011;45497;43.996;22.876;2022-12-07T03:54:34;42.78;;;31.23;;
59492;SDS011;45497;43.996;22.876;2022-12-07T03:57:09;50.28;;;37.67;;
59492;SDS011;45497;43.996;22.876;2022-12-07T03:59:37;36.83;;;19.85;;
59492;SDS011;45497;43.996;22.876;2022-12-07T04:02:05;38.63;;;19.73;;
59492;SDS011;45497;43.996;22.876;2022-12-07T04:04:31;47.45;;;30.67;;
59492;SDS011;45497;43.996;22.876;2022-12-07T04:06:58;53.17;;;33.25;;
59492;SDS011;45497;43.996;22.876;2022-12-07T04:09:23;39.40;;;22.20;;
59492;SDS011;45497;43.996;22.876;2022-12-07T04:11:49;39.43;;;20.33;;
59492;SDS011;45497;43.996;22.876;2022-12-07T04:14:14;42.23;;;21.83;;
59492;SDS011;45497;43.996;22.876;2022-12-07T04:16:43;43.30;;;21.42;;
59492;SDS011;45497;43.996;22.876;2022-12-07T04:19:10;44.50;;;22.20;;
59492;SDS011;45497;43.996;22.876;2022-12-07T04:21:35;40.33;;;20.67;;
59492;SDS011;45497;43.996;22.876;2022-12-07T04:24:01;40.93;;;19.97;;
59492;SDS011;45497;43.996;22.876;2022-12-07T04:26:26;42.28;;;19.88;;
59492;SDS011;45497;43.996;22.876;2022-12-07T04:28:52;40.47;;;19.67;;
59492;SDS011;45497;43.996;22.876;2022-12-07T04:31:17;44.00;;;20.73;;
59492;SDS011;45497;43.996;22.876;2022-12-07T04:33:43;42.25;;;19.77;;
59492;SDS011;45497;43.996;22.876;2022-12-07T04:36:08;41.43;;;19.97;;
59492;SDS011;45497;43.996;22.876;2022-12-07T04:38:33;54.50;;;32.83;;
59492;SDS011;45497;43.996;22.876;2022-12-07T04:41:03;41.33;;;20.67;;
59492;SDS011;45497;43.996;22.876;2022-12-07T04:43:33;44.28;;;20.65;;
59492;SDS011;45497;43.996;22.876;2022-12-07T04:45:59;43.90;;;21.42;;
59492;SDS011;45497;43.996;22.876;2022-12-07T04:48:25;42.33;;;21.42;;
59492;SDS011;45497;43.996;22.876;2022-12-07T04:50:50;42.93;;;20.07;;
59492;SDS011;45497;43.996;22.876;2022-12-07T04:53:16;39.03;;;19.53;;
59492;SDS011;45497;43.996;22.876;2022-12-07T04:55:41;39.53;;;19.67;;
59492;SDS011;45497;43.996;22.876;2022-12-07T04:58:06;37.90;;;19.93;;
59492;SDS011;45497;43.996;22.876;2022-12-07T05:00:32;40.57;;;21.13;;
59492;SDS011;45497;43.996;22.876;2022-12-07T05:02:58;40.13;;;19.42;;
59492;SDS011;45497;43.996;22.876;2022-12-07T05:05:23;41.63;;;20.60;;
59492;SDS011;45497;43.996;22.876;2022-12-07T05:07:49;41.33;;;20.52;;
59492;SDS011;45497;43.996;22.876;2022-12-07T05:10:15;39.85;;;19.70;;
59492;SDS011;45497;43.996;22.876;2022-12-07T05:12:41;44.10;;;21.05;;
59492;SDS011;45497;43.996;22.876;2022-12-07T05:15:07;36.67;;;18.65;;
59492;SDS011;45497;43.996;22.876;2022-12-07T05:17:32;38.53;;;18.92;;
59492;SDS011;45497;43.996;22.876;2022-12-07T05:19:58;41.85;;;20.77;;
59492;SDS011;45497;43.996;22.876;2022-12-07T05:22:23;41.87;;;20.17;;
59492;SDS011;45497;43.996;22.876;2022-12-07T05:24:53;44.15;;;21.30;;
59492;SDS011;45497;43.996;22.876;2022-12-07T05:27:19;44.83;;;22.75;;
59492;SDS011;45497;43.996;22.876;2022-12-07T05:29:45;41.25;;;21.55;;
59492;SDS011;45497;43.996;22.876;2022-12-07T05:32:11;46.13;;;24.33;;
59492;SDS011;45497;43.996;22.876;2022-12-07T05:34:36;41.77;;;20.87;;
59492;SDS011;45497;43.996;22.876;2022-12-07T05:37:02;45.63;;;20.33;;
59492;SDS011;45497;43.996;22.876;2022-12-07T05:39:27;43.67;;;22.40;;
59492;SDS011;45497;43.996;22.876;2022-12-07T05:41:53;44.33;;;21.03;;
59492;SDS011;45497;43.996;22.876;2022-12-07T05:44:36;40.72;;;20.38;;
59492;SDS011;45497;43.996;22.876;2022-12-07T05:47:02;41.28;;;21.02;;
59492;SDS011;45497;43.996;22.876;2022-12-07T05:49:28;42.88;;;20.92;;
59492;SDS011;45497;43.996;22.876;2022-12-07T05:51:53;43.27;;;21.13;;
59492;SDS011;45497;43.996;22.876;2022-12-07T05:54:18;37.67;;;19.93;;
59492;SDS011;45497;43.996;22.876;2022-12-07T05:56:44;39.72;;;20.50;;
59492;SDS011;45497;43.996;22.876;2022-12-07T05:59:10;38.93;;;20.70;;
59492;SDS011;45497;43.996;22.876;2022-12-07T06:01:57;39.73;;;21.53;;
59492;SDS011;45497;43.996;22.876;2022-12-07T06:04:25;41.65;;;20.83;;
59492;SDS011;45497;43.996;22.876;2022-12-07T06:06:52;41.75;;;20.85;;
59492;SDS011;45497;43.996;22.876;2022-12-07T06:09:18;37.87;;;20.87;;
59492;SDS011;45497;43.996;22.876;2022-12-07T06:11:44;37.97;;;20.67;;
59492;SDS011;45497;43.996;22.876;2022-12-07T06:14:28;37.45;;;21.50;;
59492;SDS011;45497;43.996;22.876;2022-12-07T06:16:54;35.53;;;21.57;;
59492;SDS011;45497;43.996;22.876;2022-12-07T06:19:19;38.93;;;22.77;;
59492;SDS011;45497;43.996;22.876;2022-12-07T06:21:45;37.30;;;22.15;;
59492;SDS011;45497;43.996;22.876;2022-12-07T06:24:11;42.83;;;25.27;;
59492;SDS011;45497;43.996;22.876;2022-12-07T06:26:38;42.75;;;24.55;;
59492;SDS011;45497;43.996;22.876;2022-12-07T06:29:03;35.22;;;19.75;;
59492;SDS011;45497;43.996;22.876;2022-12-07T06:31:29;38.87;;;23.50;;
59492;SDS011;45497;43.996;22.876;2022-12-07T06:34:01;42.70;;;24.63;;
59492;SDS011;45497;43.996;22.876;2022-12-07T06:36:28;41.35;;;23.13;;
59492;SDS011;45497;43.996;22.876;2022-12-07T06:38:54;33.95;;;19.48;;
59492;SDS011;45497;43.996;22.876;2022-12-07T06:41:20;41.10;;;22.20;;
59492;SDS011;45497;43.996;22.876;2022-12-07T06:43:45;34.30;;;19.25;;
59492;SDS011;45497;43.996;22.876;2022-12-07T06:46:11;44.92;;;23.48;;
59492;SDS011;45497;43.996;22.876;2022-12-07T06:48:36;38.13;;;20.97;;
59492;SDS011;45497;43.996;22.876;2022-12-07T06:51:02;39.57;;;22.97;;
59492;SDS011;45497;43.996;22.876;2022-12-07T06:53:27;37.47;;;21.48;;
59492;SDS011;45497;43.996;22.876;2022-12-07T06:55:53;38.10;;;21.90;;
59492;SDS011;45497;43.996;22.876;2022-12-07T06:58:18;40.03;;;22.20;;
59492;SDS011;45497;43.996;22.876;2022-12-07T07:00:44;38.08;;;20.98;;
59492;SDS011;45497;43.996;22.876;2022-12-07T07:03:10;39.75;;;22.50;;
59492;SDS011;45497;43.996;22.876;2022-12-07T07:05:36;37.15;;;22.30;;
59492;SDS011;45497;43.996;22.876;2022-12-07T07:08:01;35.63;;;20.52;;
59492;SDS011;45497;43.996;22.876;2022-12-07T07:10:27;31.17;;;18.20;;
59492;SDS011;45497;43.996;22.876;2022-12-07T07:12:53;33.92;;;20.20;;
59492;SDS011;45497;43.996;22.876;2022-12-07T07:15:18;32.45;;;17.48;;
59492;SDS011;45497;43.996;22.876;2022-12-07T07:17:44;32.80;;;17.57;;
59492;SDS011;45497;43.996;22.876;2022-12-07T07:20:10;31.90;;;18.00;;
59492;SDS011;45497;43.996;22.876;2022-12-07T07:22:37;28.33;;;16.83;;
59492;SDS011;45497;43.996;22.876;2022-12-07T07:25:02;33.20;;;18.53;;
59492;SDS011;45497;43.996;22.876;2022-12-07T07:27:28;33.40;;;18.35;;
59492;SDS011;45497;43.996;22.876;2022-12-07T07:29:54;34.45;;;18.70;;
59492;SDS011;45497;43.996;22.876;2022-12-07T07:32:20;31.43;;;17.77;;
59492;SDS011;45497;43.996;22.876;2022-12-07T07:34:47;40.47;;;17.15;;
59492;SDS011;45497;43.996;22.876;2022-12-07T07:37:12;29.30;;;16.30;;
59492;SDS011;45497;43.996;22.876;2022-12-07T07:39:38;27.20;;;15.90;;
59492;SDS011;45497;43.996;22.876;2022-12-07T07:42:04;25.15;;;14.73;;
59492;SDS011;45497;43.996;22.876;2022-12-07T07:44:29;28.75;;;16.83;;
59492;SDS011;45497;43.996;22.876;2022-12-07T07:46:55;28.45;;;16.48;;
59492;SDS011;45497;43.996;22.876;2022-12-07T07:49:20;28.90;;;15.77;;
59492;SDS011;45497;43.996;22.876;2022-12-07T07:51:46;26.73;;;15.93;;
59492;SDS011;45497;43.996;22.876;2022-12-07T07:54:11;31.10;;;17.27;;
59492;SDS011;45497;43.996;22.876;2022-12-07T07:56:37;29.50;;;16.67;;
59492;SDS011;45497;43.996;22.876;2022-12-07T07:59:02;26.87;;;16.13;;
59492;SDS011;45497;43.996;22.876;2022-12-07T08:01:28;28.70;;;16.48;;
59492;SDS011;45497;43.996;22.876;2022-12-07T08:03:53;26.23;;;15.70;;
59492;SDS011;45497;43.996;22.876;2022-12-07T08:06:19;29.67;;;17.90;;
59492;SDS011;45497;43.996;22.876;2022-12-07T08:08:44;25.58;;;15.07;;
59492;SDS011;45497;43.996;22.876;2022-12-07T08:11:10;26.90;;;15.93;;
59492;SDS011;45497;43.996;22.876;2022-12-07T08:13:36;26.63;;;15.70;;
59492;SDS011;45497;43.996;22.876;2022-12-07T08:16:06;28.25;;;16.92;;
59492;SDS011;45497;43.996;22.876;2022-12-07T08:18:37;25.48;;;15.02;;
59492;SDS011;45497;43.996;22.876;2022-12-07T08:21:04;28.77;;;15.32;;
59492;SDS011;45497;43.996;22.876;2022-12-07T08:23:31;25.05;;;14.23;;
59492;SDS011;45497;43.996;22.876;2022-12-07T08:26:00;28.52;;;16.42;;
59492;SDS011;45497;43.996;22.876;2022-12-07T08:28:28;27.53;;;15.00;;
59492;SDS011;45497;43.996;22.876;2022-12-07T08:30:58;31.33;;;17.05;;
59492;SDS011;45497;43.996;22.876;2022-12-07T08:33:26;34.80;;;17.23;;
59492;SDS011;45497;43.996;22.876;2022-12-07T08:35:52;28.77;;;15.52;;
59492;SDS011;45497;43.996;22.876;2022-12-07T08:38:18;29.60;;;15.90;;
59492;SDS011;45497;43.996;22.876;2022-12-07T08:40:43;32.15;;;15.57;;
59492;SDS011;45497;43.996;22.876;2022-12-07T08:43:08;30.73;;;16.07;;
59492;SDS011;45497;43.996;22.876;2022-12-07T08:45:34;29.20;;;15.83;;
59492;SDS011;45497;43.996;22.876;2022-12-07T08:48:02;29.45;;;15.57;;
59492;SDS011;45497;43.996;22.876;2022-12-07T08:50:35;34.15;;;16.67;;
59492;SDS011;45497;43.996;22.876;2022-12-07T08:53:02;32.13;;;17.20;;
59492;SDS011;45497;43.996;22.876;2022-12-07T08:55:29;34.83;;;17.52;;
59492;SDS011;45497;43.996;22.876;2022-12-07T08:57:57;30.17;;;15.93;;
59492;SDS011;45497;43.996;22.876;2022-12-07T09:00:23;32.60;;;16.08;;
59492;SDS011;45497;43.996;22.876;2022-12-07T09:02:49;28.10;;;13.75;;
59492;SDS011;45497;43.996;22.876;2022-12-07T09:05:15;25.63;;;14.30;;
59492;SDS011;45497;43.996;22.876;2022-12-07T09:07:41;24.60;;;14.00;;
59492;SDS011;45497;43.996;22.876;2022-12-07T09:10:08;23.77;;;14.00;;
59492;SDS011;45497;43.996;22.876;2022-12-07T09:12:34;20.30;;;11.43;;
59492;SDS011;45497;43.996;22.876;2022-12-07T09:14:59;20.25;;;11.85;;
59492;SDS011;45497;43.996;22.876;2022-12-07T09:17:25;20.08;;;12.00;;
59492;SDS011;45497;43.996;22.876;2022-12-07T09:19:51;19.48;;;11.30;;
59492;SDS011;45497;43.996;22.876;2022-12-07T09:22:17;23.03;;;13.33;;
59492;SDS011;45497;43.996;22.876;2022-12-07T09:24:42;21.63;;;13.02;;
59492;SDS011;45497;43.996;22.876;2022-12-07T09:27:10;21.13;;;13.70;;
59492;SDS011;45497;43.996;22.876;2022-12-07T09:29:36;19.30;;;12.90;;
59492;SDS011;45497;43.996;22.876;2022-12-07T09:32:02;16.95;;;11.52;;
59492;SDS011;45497;43.996;22.876;2022-12-07T09:34:30;20.10;;;12.77;;
59492;SDS011;45497;43.996;22.876;2022-12-07T09:36:57;19.00;;;15.13;;
59492;SDS011;45497;43.996;22.876;2022-12-07T09:39:23;51.67;;;45.07;;
59492;SDS011;45497;43.996;22.876;2022-12-07T09:41:48;47.50;;;42.33;;
59492;SDS011;45497;43.996;22.876;2022-12-07T09:44:17;18.52;;;12.98;;
59492;SDS011;45497;43.996;22.876;2022-12-07T09:46:48;17.55;;;11.90;;
59492;SDS011;45497;43.996;22.876;2022-12-07T09:49:16;27.60;;;21.92;;
59492;SDS011;45497;43.996;22.876;2022-12-07T09:51:44;18.55;;;11.68;;
59492;SDS011;45497;43.996;22.876;2022-12-07T09:54:13;18.67;;;13.10;;
59492;SDS011;45497;43.996;22.876;2022-12-07T09:56:41;16.48;;;11.60;;
59492;SDS011;45497;43.996;22.876;2022-12-07T09:59:09;16.00;;;10.90;;
59492;SDS011;45497;43.996;22.876;2022-12-07T10:01:41;16.53;;;10.13;;
59492;SDS011;45497;43.996;22.876;2022-12-07T10:04:12;22.00;;;16.50;;
59492;SDS011;45497;43.996;22.876;2022-12-07T10:06:41;17.10;;;11.15;;
59492;SDS011;45497;43.996;22.876;2022-12-07T10:09:11;17.85;;;11.68;;
59492;SDS011;45497;43.996;22.876;2022-12-07T10:14:30;17.03;;;12.27;;
59492;SDS011;45497;43.996;22.876;2022-12-07T10:16:57;16.83;;;11.23;;
59492;SDS011;45497;43.996;22.876;2022-12-07T10:19:24;17.93;;;11.70;;
59492;SDS011;45497;43.996;22.876;2022-12-07T10:22:01;15.63;;;10.65;;
59492;SDS011;45497;43.996;22.876;2022-12-07T10:24:36;17.60;;;11.50;;
59492;SDS011;45497;43.996;22.876;2022-12-07T10:27:04;16.10;;;10.82;;
59492;SDS011;45497;43.996;22.876;2022-12-07T10:29:42;16.77;;;11.55;;
59492;SDS011;45497;43.996;22.876;2022-12-07T10:34:40;15.80;;;10.43;;
59492;SDS011;45497;43.996;22.876;2022-12-07T10:44:47;15.07;;;10.70;;
59492;SDS011;45497;43.996;22.876;2022-12-07T10:50:11;18.70;;;12.63;;
59492;SDS011;45497;43.996;22.876;2022-12-07T11:03:46;11.30;;;9.38;;
59492;SDS011;45497;43.996;22.876;2022-12-07T11:09:15;32.78;;;29.77;;
59492;SDS011;45497;43.996;22.876;2022-12-07T11:23:15;13.45;;;10.35;;
59492;SDS011;45497;43.996;22.876;2022-12-07T11:28:27;11.75;;;8.90;;
59492;SDS011;45497;43.996;22.876;2022-12-07T11:31:18;11.18;;;9.23;;
59492;SDS011;45497;43.996;22.876;2022-12-07T11:39:09;13.57;;;12.18;;
59492;SDS011;45497;43.996;22.876;2022-12-07T11:41:46;9.50;;;7.90;;
59492;SDS011;45497;43.996;22.876;2022-12-07T11:44:24;9.83;;;7.87;;
59492;SDS011;45497;43.996;22.876;2022-12-07T11:46:54;10.38;;;7.78;;
59492;SDS011;45497;43.996;22.876;2022-12-07T11:49:37;9.68;;;7.75;;
59492;SDS011;45497;43.996;22.876;2022-12-07T11:52:22;10.80;;;8.05;;
59492;SDS011;45497;43.996;22.876;2022-12-07T11:54:59;12.05;;;9.38;;
59492;SDS011;45497;43.996;22.876;2022-12-07T11:57:32;8.13;;;7.32;;
59492;SDS011;45497;43.996;22.876;2022-12-07T12:00:05;14.37;;;9.60;;
59492;SDS011;45497;43.996;22.876;2022-12-07T12:02:43;11.52;;;9.40;;
59492;SDS011;45497;43.996;22.876;2022-12-07T12:05:18;8.27;;;7.38;;
59492;SDS011;45497;43.996;22.876;2022-12-07T12:07:48;9.25;;;8.00;;
59492;SDS011;45497;43.996;22.876;2022-12-07T12:16:38;9.50;;;7.80;;
59492;SDS011;45497;43.996;22.876;2022-12-07T12:19:08;6.68;;;5.85;;
59492;SDS011;45497;43.996;22.876;2022-12-07T12:21:47;8.13;;;7.20;;
59492;SDS011;45497;43.996;22.876;2022-12-07T12:24:19;7.40;;;5.95;;
59492;SDS011;45497;43.996;22.876;2022-12-07T12:27:25;8.13;;;7.00;;
59492;SDS011;45497;43.996;22.876;2022-12-07T12:29:51;9.07;;;7.20;;
59492;SDS011;45497;43.996;22.876;2022-12-07T12:32:20;8.13;;;6.97;;
59492;SDS011;45497;43.996;22.876;2022-12-07T12:42:57;8.88;;;7.85;;
59492;SDS011;45497;43.996;22.876;2022-12-07T12:45:24;7.85;;;6.85;;
59492;SDS011;45497;43.996;22.876;2022-12-07T12:48:01;10.97;;;8.57;;
59492;SDS011;45497;43.996;22.876;2022-12-07T12:50:29;13.80;;;9.60;;
59492;SDS011;45497;43.996;22.876;2022-12-07T12:56:03;10.48;;;7.53;;
59492;SDS011;45497;43.996;22.876;2022-12-07T12:58:32;10.50;;;8.27;;
59492;SDS011;45497;43.996;22.876;2022-12-07T13:04:01;10.35;;;8.80;;
59492;SDS011;45497;43.996;22.876;2022-12-07T13:06:35;11.38;;;9.10;;
59492;SDS011;45497;43.996;22.876;2022-12-07T13:09:03;10.57;;;8.70;;
59492;SDS011;45497;43.996;22.876;2022-12-07T13:11:33;10.00;;;8.27;;
59492;SDS011;45497;43.996;22.876;2022-12-07T13:17:06;9.60;;;7.38;;
59492;SDS011;45497;43.996;22.876;2022-12-07T13:24:56;9.83;;;8.30;;
59492;SDS011;45497;43.996;22.876;2022-12-07T13:27:47;13.27;;;10.55;;
59492;SDS011;45497;43.996;22.876;2022-12-07T13:30:21;10.90;;;8.60;;
59492;SDS011;45497;43.996;22.876;2022-12-07T13:32:54;11.95;;;9.35;;
59492;SDS011;45497;43.996;22.876;2022-12-07T13:41:02;14.17;;;11.00;;
59492;SDS011;45497;43.996;22.876;2022-12-07T13:43:29;15.30;;;11.80;;
59492;SDS011;45497;43.996;22.876;2022-12-07T13:45:58;13.90;;;10.90;;
59492;SDS011;45497;43.996;22.876;2022-12-07T13:48:35;15.50;;;10.45;;
59492;SDS011;45497;43.996;22.876;2022-12-07T13:51:14;14.52;;;10.50;;
59492;SDS011;45497;43.996;22.876;2022-12-07T13:53:46;26.20;;;17.30;;
59492;SDS011;45497;43.996;22.876;2022-12-07T13:56:25;16.88;;;12.15;;
59492;SDS011;45497;43.996;22.876;2022-12-07T13:58:56;14.93;;;10.50;;
59492;SDS011;45497;43.996;22.876;2022-12-07T14:01:22;19.15;;;13.23;;
59492;SDS011;45497;43.996;22.876;2022-12-07T14:03:49;18.60;;;13.33;;
59492;SDS011;45497;43.996;22.876;2022-12-07T14:08:50;16.88;;;12.30;;
59492;SDS011;45497;43.996;22.876;2022-12-07T14:11:30;14.25;;;11.68;;
59492;SDS011;45497;43.996;22.876;2022-12-07T14:13:57;14.30;;;11.75;;
59492;SDS011;45497;43.996;22.876;2022-12-07T14:16:33;16.17;;;13.18;;
59492;SDS011;45497;43.996;22.876;2022-12-07T14:19:01;18.45;;;15.15;;
59492;SDS011;45497;43.996;22.876;2022-12-07T14:21:32;16.65;;;13.55;;
59492;SDS011;45497;43.996;22.876;2022-12-07T14:24:08;17.30;;;13.60;;
59492;SDS011;45497;43.996;22.876;2022-12-07T14:26:37;16.27;;;12.90;;
59492;SDS011;45497;43.996;22.876;2022-12-07T14:31:53;19.88;;;15.15;;
59492;SDS011;45497;43.996;22.876;2022-12-07T14:34:20;19.10;;;15.37;;
59492;SDS011;45497;43.996;22.876;2022-12-07T14:36:46;19.45;;;14.85;;
59492;SDS011;45497;43.996;22.876;2022-12-07T14:39:12;19.65;;;15.25;;
59492;SDS011;45497;43.996;22.876;2022-12-07T14:41:37;18.37;;;14.23;;
59492;SDS011;45497;43.996;22.876;2022-12-07T14:44:22;17.45;;;13.82;;
59492;SDS011;45497;43.996;22.876;2022-12-07T14:46:48;19.55;;;15.43;;
59492;SDS011;45497;43.996;22.876;2022-12-07T14:49:14;20.67;;;16.05;;
59492;SDS011;45497;43.996;22.876;2022-12-07T14:51:41;20.30;;;15.80;;
59492;SDS011;45497;43.996;22.876;2022-12-07T14:54:13;20.55;;;16.27;;
59492;SDS011;45497;43.996;22.876;2022-12-07T14:56:42;22.77;;;16.77;;
59492;SDS011;45497;43.996;22.876;2022-12-07T14:59:09;22.52;;;16.77;;
59492;SDS011;45497;43.996;22.876;2022-12-07T15:01:35;24.45;;;17.50;;
59492;SDS011;45497;43.996;22.876;2022-12-07T15:04:00;23.70;;;17.43;;
59492;SDS011;45497;43.996;22.876;2022-12-07T15:06:26;25.10;;;18.10;;
59492;SDS011;45497;43.996;22.876;2022-12-07T15:08:51;67.65;;;30.77;;
59492;SDS011;45497;43.996;22.876;2022-12-07T15:11:17;30.97;;;21.17;;
59492;SDS011;45497;43.996;22.876;2022-12-07T15:13:43;22.23;;;16.33;;
59492;SDS011;45497;43.996;22.876;2022-12-07T15:16:27;29.52;;;22.17;;
59492;SDS011;45497;43.996;22.876;2022-12-07T15:18:52;26.73;;;20.47;;
59492;SDS011;45497;43.996;22.876;2022-12-07T15:21:18;28.20;;;22.17;;
59492;SDS011;45497;43.996;22.876;2022-12-07T15:23:43;9.20;;;7.82;;
59492;SDS011;45497;43.996;22.876;2022-12-07T15:26:11;9.38;;;7.10;;
59492;SDS011;45497;43.996;22.876;2022-12-07T15:28:36;9.20;;;7.63;;
59492;SDS011;45497;43.996;22.876;2022-12-07T15:31:02;10.43;;;8.43;;
59492;SDS011;45497;43.996;22.876;2022-12-07T15:33:27;12.43;;;9.23;;
59492;SDS011;45497;43.996;22.876;2022-12-07T15:35:53;10.73;;;8.33;;
59492;SDS011;45497;43.996;22.876;2022-12-07T15:38:18;11.68;;;9.52;;
59492;SDS011;45497;43.996;22.876;2022-12-07T15:40:46;11.73;;;9.50;;
59492;SDS011;45497;43.996;22.876;2022-12-07T15:43:12;11.02;;;8.75;;
59492;SDS011;45497;43.996;22.876;2022-12-07T15:45:56;16.02;;;12.52;;
59492;SDS011;45497;43.996;22.876;2022-12-07T15:48:21;17.83;;;13.97;;
59492;SDS011;45497;43.996;22.876;2022-12-07T15:50:46;47.73;;;34.20;;
59492;SDS011;45497;43.996;22.876;2022-12-07T15:53:12;43.33;;;32.38;;
59492;SDS011;45497;43.996;22.876;2022-12-07T15:55:43;53.67;;;38.63;;
59492;SDS011;45497;43.996;22.876;2022-12-07T15:58:09;57.92;;;39.53;;
59492;SDS011;45497;43.996;22.876;2022-12-07T16:00:34;60.08;;;38.75;;
59492;SDS011;45497;43.996;22.876;2022-12-07T16:03:00;35.03;;;26.33;;
59492;SDS011;45497;43.996;22.876;2022-12-07T16:05:26;31.17;;;22.27;;
59492;SDS011;45497;43.996;22.876;2022-12-07T16:07:51;25.03;;;18.60;;
59492;SDS011;45497;43.996;22.876;2022-12-07T16:10:17;21.17;;;15.10;;
59492;SDS011;45497;43.996;22.876;2022-12-07T16:12:42;19.27;;;16.10;;
59492;SDS011;45497;43.996;22.876;2022-12-07T16:15:08;18.47;;;14.50;;
59492;SDS011;45497;43.996;22.876;2022-12-07T16:17:33;21.38;;;17.20;;
59492;SDS011;45497;43.996;22.876;2022-12-07T16:19:59;21.97;;;17.83;;
59492;SDS011;45497;43.996;22.876;2022-12-07T16:22:25;30.92;;;23.98;;
59492;SDS011;45497;43.996;22.876;2022-12-07T16:24:50;60.88;;;40.80;;